Detalii statie BONGA [00001D00]

Toti senzorii

Date Temperatura solului [C]Precipitatii [mm]Voltaj baterie [mV]Leaf Wetness [Min]HC Air temperature [C]HC Relative humidity [%]Punctul de roua [C]
medieminmaxsumaultimatimpmedieminmaxmediemediemin
2019-04-19 19:00:00 4.7 3.3 10.4 0 7020
2019-04-19 20:00:00 5.8 5.3 6.3 0 6992
2019-04-19 21:00:00 6.3 6.3 6.5 0 6972
2019-04-19 22:00:00 6.4 6.3 6.5 0 6962
2019-04-19 23:00:00 6.3 6.2 6.5 0 6952
2019-04-20 00:00:00 6.2 6.1 6.4 0 6922
2019-04-20 01:00:00 6.3 6.3 6.5 0 6904
2019-04-20 02:00:00 6.3 6.3 6.5 0 6904
2019-04-20 03:00:00 6.3 6.2 6.5 0 6904
2019-04-20 04:00:00 6.1 6 6.3 0 6904
2019-04-20 05:00:00 5.9 5.8 6.1 0 6894
2019-04-20 06:00:00 5.8 5.7 6 0 6922
2019-04-20 07:00:00 5.9 5.7 6.2 0 7040
2019-04-20 08:00:00 6.4 6.3 6.7 0 7148
2019-04-20 09:00:00 7.1 6.8 7.7 0 7186
2019-04-20 10:00:00 8 7.7 8.5 0 7176
2019-04-20 11:00:00 9.1 8.7 9.5 0 7264
2019-04-20 12:00:00 9.6 9 10.1 0 7332
2019-04-20 13:00:00 10.2 10.1 10.4 0 7342
2019-04-20 14:00:00 10.3 10.1 10.5 0 7342
2019-04-20 15:00:00 10.6 10.4 11 0 7342
2019-04-20 16:00:00 10.7 10.6 11 0 7342
2019-04-20 17:00:00 10.7 10.5 11 0 7342
2019-04-20 18:00:00 10.5 10.3 10.7 0 7342
2019-04-20 19:00:00 10.1 9.7 10.4 0 7070
2019-04-20 20:00:00 9.2 8.9 9.9 0 7010
2019-04-20 21:00:00 8.5 8.3 8.9 0 6992
2019-04-20 22:00:00 8.1 7.9 8.4 0 6972
2019-04-20 23:00:00 7.7 7.7 7.9 0 6962
2019-04-21 00:00:00 7.5 7.4 7.7 0 6962
2019-04-21 01:00:00 7.2 7 7.4 0 6942
2019-04-21 02:00:00 7 6.9 7.1 0 6932
2019-04-21 03:00:00 6.6 6.5 6.8 0 6922
2019-04-21 04:00:00 6.4 6.3 6.7 0 6922
2019-04-21 05:00:00 6.3 6.2 6.4 0 6914
2019-04-21 06:00:00 6.3 6.3 6.6 0 6952
2019-04-21 07:00:00 6.5 6.3 6.8 0 7080
2019-04-21 08:00:00 7 6.8 7.3 0 7236
2019-04-21 09:00:00 7.8 7.4 8.3 0 7342
2019-04-21 10:00:00 9 8.4 9.6 0 7332
2019-04-21 11:00:00 10.3 9.7 10.8 0 7332
2019-04-21 12:00:00 11.2 10.9 11.6 0 7332
2019-04-21 13:00:00 12.1 11.5 12.5 0 7332
2019-04-21 14:00:00 12.6 12.4 12.8 0 7332
2019-04-21 15:00:00 12.8 12.7 13 0 7342
2019-04-21 16:00:00 12.8 12.8 13.1 0 7342
2019-04-21 17:00:00 12.6 12.5 12.9 0 7342
2019-04-21 18:00:00 12 11.7 12.4 0 7342